Time;durP1;ratioP1;P1;durP2;ratioP2;P2;SDS_P1;SDS_P2;PMS_P1;PMS_P2;Temp;Humidity;BMP_temperature;BMP_pressure;BME280_temperature;BME280_humidity;BME280_pressure;Samples;Min_cycle;Max_cycle;Signal;HPM_P1;HPM_P2
2022/04/10 00:01:53;;;;;;;9.80;8.93;;;3.90;99.90;;;;;;4981594;28;20296;-78
2022/04/10 00:04:20;;;;;;;10.20;9.30;;;3.90;99.90;;;;;;4979651;28;20186;-77
2022/04/10 00:06:46;;;;;;;9.33;8.70;;;3.90;99.90;;;;;;4981927;28;20448;-77
2022/04/10 00:09:14;;;;;;;9.23;8.60;;;3.90;99.90;;;;;;4980421;28;20241;-77
2022/04/10 00:11:41;;;;;;;9.93;9.23;;;3.90;99.90;;;;;;4991414;28;20221;-77
2022/04/10 00:14:09;;;;;;;10.77;9.87;;;3.90;99.90;;;;;;4981010;28;20505;-77
2022/04/10 00:16:35;;;;;;;10.70;9.90;;;3.90;99.90;;;;;;4981898;28;20193;-77
2022/04/10 00:19:04;;;;;;;10.87;10.07;;;3.80;99.90;;;;;;4980192;28;20215;-78
2022/04/10 00:21:31;;;;;;;11.23;10.33;;;3.80;99.90;;;;;;4981622;28;20887;-77
2022/04/10 00:23:59;;;;;;;10.10;9.20;;;3.80;99.90;;;;;;4995335;28;20284;-77
2022/04/10 00:26:26;;;;;;;11.03;10.23;;;3.80;99.90;;;;;;4981258;28;20205;-77
2022/04/10 00:28:53;;;;;;;10.13;9.23;;;3.80;99.90;;;;;;4982848;28;20216;-77
2022/04/10 00:31:21;;;;;;;9.50;8.80;;;3.80;99.90;;;;;;4978786;28;20477;-77
2022/04/10 00:33:48;;;;;;;9.93;9.20;;;3.70;99.90;;;;;;4981576;28;21035;-77
2022/04/10 00:36:17;;;;;;;9.83;9.00;;;3.70;99.90;;;;;;4981975;28;20933;-77
2022/04/10 00:38:44;;;;;;;10.00;9.13;;;3.70;99.90;;;;;;4978246;28;20505;-77
2022/04/10 00:41:11;;;;;;;10.87;9.90;;;3.60;99.90;;;;;;4979849;28;20932;-78
2022/04/10 00:43:39;;;;;;;10.00;9.20;;;3.60;99.90;;;;;;4984696;28;20531;-77
2022/04/10 00:46:06;;;;;;;11.00;10.13;;;3.60;99.90;;;;;;4978121;28;20529;-77
2022/04/10 00:48:35;;;;;;;9.97;9.23;;;3.60;99.90;;;;;;4979731;28;20456;-77
2022/04/10 00:53:47;;;;;;;9.87;9.17;;;3.60;99.90;;;;;;4972920;28;20466;-77
2022/04/10 00:56:14;;;;;;;10.30;9.57;;;3.50;99.90;;;;;;4980312;28;20448;-77
2022/04/10 00:58:42;;;;;;;10.10;9.37;;;3.50;99.90;;;;;;4982569;28;20442;-78
2022/04/10 01:01:09;;;;;;;10.30;9.30;;;3.50;99.90;;;;;;4987314;28;20568;-77
2022/04/10 01:03:37;;;;;;;10.40;9.60;;;3.50;99.90;;;;;;4978846;28;20197;-77
2022/04/10 01:06:05;;;;;;;9.60;8.90;;;3.50;99.90;;;;;;4994031;28;20441;-78
2022/04/10 01:08:32;;;;;;;10.57;9.50;;;3.50;99.90;;;;;;4981292;28;20474;-77
2022/04/10 01:10:58;;;;;;;10.10;9.30;;;3.50;99.90;;;;;;4979523;28;20483;-77
2022/04/10 01:13:26;;;;;;;9.60;8.90;;;3.50;99.90;;;;;;4987663;28;20461;-77
2022/04/10 01:15:53;;;;;;;9.80;8.90;;;3.60;99.90;;;;;;4983234;28;20941;-77
2022/04/10 01:18:21;;;;;;;9.23;8.63;;;3.60;99.90;;;;;;5001012;28;20459;-79
2022/04/10 01:20:49;;;;;;;10.07;9.17;;;3.60;99.90;;;;;;4990510;28;20859;-79
2022/04/10 01:23:18;;;;;;;9.80;9.10;;;3.50;99.90;;;;;;4981381;28;20455;-78
2022/04/10 01:25:45;;;;;;;9.63;8.83;;;3.60;99.90;;;;;;5000749;28;20197;-78
2022/04/10 01:28:14;;;;;;;10.60;9.73;;;3.60;99.90;;;;;;4983764;28;20453;-78
2022/04/10 01:30:44;;;;;;;10.33;9.43;;;3.50;99.90;;;;;;4980469;28;21002;-79
2022/04/10 01:33:11;;;;;;;10.23;9.43;;;3.60;99.90;;;;;;4980365;28;20480;-80
2022/04/10 01:35:39;;;;;;;10.07;9.33;;;3.60;99.90;;;;;;4955487;28;20814;-77
2022/04/10 01:38:11;;;;;;;9.70;9.00;;;3.60;99.90;;;;;;4976455;28;20213;-78
2022/04/10 01:40:47;;;;;;;9.43;8.77;;;3.60;99.90;;;;;;4993172;28;20219;-79
2022/04/10 01:43:14;;;;;;;10.70;9.70;;;3.70;99.90;;;;;;4975404;28;20202;-79
2022/04/10 01:45:42;;;;;;;9.90;9.10;;;3.70;99.90;;;;;;4986358;28;20988;-78
2022/04/10 01:48:09;;;;;;;7.37;6.87;;;3.70;99.90;;;;;;4979809;28;20798;-79
2022/04/10 01:50:36;;;;;;;9.17;8.27;;;3.70;99.90;;;;;;4983424;28;20468;-79
2022/04/10 01:53:05;;;;;;;7.90;7.30;;;3.70;99.90;;;;;;4982709;28;20631;-78
2022/04/10 01:55:32;;;;;;;9.37;8.47;;;3.70;99.90;;;;;;4975395;28;20202;-79
2022/04/10 01:58:01;;;;;;;8.93;8.23;;;3.60;99.90;;;;;;4983446;28;20819;-78
2022/04/10 02:00:28;;;;;;;5.97;5.37;;;3.60;99.90;;;;;;4988666;28;20477;-79
2022/04/10 02:02:55;;;;;;;9.60;8.80;;;3.60;99.90;;;;;;4982386;28;20194;-79
2022/04/10 02:05:22;;;;;;;8.90;8.10;;;3.60;99.90;;;;;;4983488;28;20492;-78
2022/04/10 02:07:49;;;;;;;8.80;8.00;;;3.70;99.90;;;;;;4982387;28;20221;-78
2022/04/10 02:10:17;;;;;;;9.70;9.00;;;3.70;99.90;;;;;;4992600;28;20480;-78
2022/04/10 02:12:44;;;;;;;9.83;9.10;;;3.80;99.90;;;;;;4989989;28;20503;-79
2022/04/10 02:15:12;;;;;;;9.47;8.73;;;3.80;99.90;;;;;;4985527;28;20907;-78
2022/04/10 02:17:39;;;;;;;9.83;9.00;;;3.80;99.90;;;;;;4985638;28;20708;-78
2022/04/10 02:20:07;;;;;;;10.10;9.30;;;3.80;99.90;;;;;;4981563;28;20476;-80
2022/04/10 02:22:34;;;;;;;9.20;8.60;;;3.80;99.90;;;;;;4981897;28;20210;-79
2022/04/10 02:25:02;;;;;;;9.37;8.70;;;3.70;99.90;;;;;;4982050;28;20647;-78
2022/04/10 02:27:29;;;;;;;9.73;8.93;;;3.70;99.90;;;;;;4984756;28;20205;-79
2022/04/10 02:29:56;;;;;;;9.20;8.40;;;3.70;99.90;;;;;;4986818;28;20484;-81
2022/04/10 02:32:25;;;;;;;9.77;9.07;;;3.60;99.90;;;;;;4992307;28;20205;-79
2022/04/10 02:34:52;;;;;;;9.57;8.87;;;3.60;99.90;;;;;;4993222;28;20502;-78
2022/04/10 02:37:21;;;;;;;9.13;8.43;;;3.50;99.90;;;;;;4980087;28;20201;-78
2022/04/10 02:39:48;;;;;;;9.10;8.40;;;3.40;99.90;;;;;;4985603;28;20570;-79
2022/04/10 02:42:15;;;;;;;10.63;9.80;;;3.40;99.90;;;;;;4984148;28;20531;-78
2022/04/10 02:44:42;;;;;;;10.10;9.40;;;3.30;99.90;;;;;;4979275;28;20468;-78
2022/04/10 02:47:09;;;;;;;10.67;9.90;;;3.30;99.90;;;;;;4970115;28;20459;-77
2022/04/10 02:49:38;;;;;;;10.50;9.70;;;3.30;99.90;;;;;;4973296;28;20480;-77
2022/04/10 02:52:05;;;;;;;10.50;9.70;;;3.20;99.90;;;;;;4982803;28;20470;-79
2022/04/10 02:54:33;;;;;;;10.23;9.53;;;3.20;99.90;;;;;;4986120;28;20330;-77
2022/04/10 02:57:00;;;;;;;10.53;9.70;;;3.20;99.90;;;;;;4967100;28;20213;-79
2022/04/10 02:59:27;;;;;;;10.53;9.67;;;3.10;99.90;;;;;;4978865;28;20478;-77
2022/04/10 03:01:54;;;;;;;10.67;9.87;;;3.10;99.90;;;;;;4979187;28;20976;-78
2022/04/10 03:04:21;;;;;;;9.97;9.30;;;3.10;99.90;;;;;;4972953;28;20441;-77
2022/04/10 03:06:49;;;;;;;10.23;9.53;;;3.00;99.90;;;;;;4971201;28;20552;-78
2022/04/10 03:09:17;;;;;;;10.20;9.60;;;3.00;99.90;;;;;;4961941;28;20851;-77
2022/04/10 03:11:45;;;;;;;10.13;9.43;;;3.00;99.90;;;;;;4973181;28;20836;-79
2022/04/10 03:14:12;;;;;;;10.53;9.83;;;2.90;99.90;;;;;;4980292;28;20209;-78
2022/04/10 03:16:39;;;;;;;10.90;10.10;;;2.90;99.90;;;;;;4979971;28;20460;-78
2022/04/10 03:19:06;;;;;;;10.50;9.80;;;2.90;99.90;;;;;;4992465;28;20470;-79
2022/04/10 03:21:34;;;;;;;10.57;9.77;;;2.90;99.90;;;;;;4979933;28;20444;-83
2022/04/10 03:24:02;;;;;;;11.10;10.13;;;2.90;99.90;;;;;;4982692;28;20451;-78
2022/04/10 03:26:30;;;;;;;10.23;9.53;;;2.90;99.90;;;;;;4976617;28;20508;-78
2022/04/10 03:28:58;;;;;;;11.17;10.33;;;2.80;99.90;;;;;;4982246;28;20896;-79
2022/04/10 03:31:26;;;;;;;10.43;9.63;;;2.80;99.90;;;;;;4985049;28;20894;-79
2022/04/10 03:33:54;;;;;;;10.77;9.97;;;2.70;99.90;;;;;;4972302;28;20537;-78
2022/04/10 03:36:22;;;;;;;11.47;10.40;;;2.70;99.90;;;;;;4980033;28;20508;-79
2022/04/10 03:38:49;;;;;;;10.80;10.00;;;2.70;99.90;;;;;;4984669;28;20540;-79
2022/04/10 03:41:17;;;;;;;10.60;9.80;;;2.70;99.90;;;;;;4986291;28;20457;-79
2022/04/10 03:43:45;;;;;;;10.63;9.83;;;2.60;99.90;;;;;;4996762;28;20484;-80
2022/04/10 03:46:11;;;;;;;11.17;10.13;;;2.60;99.90;;;;;;4972478;28;20874;-79
2022/04/10 03:48:38;;;;;;;10.70;9.90;;;2.50;99.90;;;;;;4972687;28;20444;-78
2022/04/10 03:51:05;;;;;;;10.70;9.87;;;2.50;99.90;;;;;;4980178;28;20452;-79
2022/04/10 03:53:34;;;;;;;10.50;9.73;;;2.40;99.90;;;;;;4982739;28;20457;-79
2022/04/10 03:56:01;;;;;;;11.67;10.57;;;2.40;99.90;;;;;;4974763;28;20710;-79
2022/04/10 03:58:32;;;;;;;11.57;10.57;;;2.40;99.90;;;;;;4970378;28;20484;-79
2022/04/10 04:01:00;;;;;;;11.80;11.00;;;2.40;99.90;;;;;;4980248;28;20451;-79
2022/04/10 04:03:27;;;;;;;10.97;10.17;;;2.40;99.90;;;;;;4981228;28;20462;-79
2022/04/10 04:05:55;;;;;;;11.20;10.30;;;2.30;99.90;;;;;;4984328;28;20770;-79
2022/04/10 04:08:24;;;;;;;10.80;10.00;;;2.30;99.90;;;;;;4981333;28;20451;-79
2022/04/10 04:10:53;;;;;;;10.90;10.00;;;2.30;99.90;;;;;;4981536;28;20470;-79
2022/04/10 04:13:22;;;;;;;11.37;10.33;;;2.30;99.90;;;;;;4974030;28;20454;-79
2022/04/10 04:15:50;;;;;;;11.60;10.47;;;2.30;99.90;;;;;;4985377;28;20486;-79
2022/04/10 04:18:17;;;;;;;11.63;10.63;;;2.30;99.90;;;;;;4966323;28;20467;-78
2022/04/10 04:20:44;;;;;;;11.20;10.40;;;2.30;99.90;;;;;;4978622;28;20536;-80
2022/04/10 04:23:11;;;;;;;11.27;10.37;;;2.30;99.90;;;;;;4970063;28;20452;-81
2022/04/10 04:25:38;;;;;;;11.30;10.50;;;2.20;99.90;;;;;;4984254;28;20468;-80
2022/04/10 04:28:07;;;;;;;10.87;10.17;;;2.20;99.90;;;;;;4987892;28;20465;-79
2022/04/10 04:30:35;;;;;;;12.20;11.20;;;2.20;99.90;;;;;;4982606;28;20566;-79
2022/04/10 04:33:06;;;;;;;11.57;10.70;;;2.10;99.90;;;;;;4999532;28;20482;-78
2022/04/10 04:35:34;;;;;;;12.40;11.30;;;2.10;99.90;;;;;;4995061;28;20493;-79
2022/04/10 04:38:02;;;;;;;11.57;10.57;;;2.20;99.90;;;;;;4998673;28;20477;-79
2022/04/10 04:40:30;;;;;;;11.87;11.00;;;2.10;99.90;;;;;;4970725;28;20476;-79
2022/04/10 04:42:58;;;;;;;12.77;11.67;;;2.10;99.90;;;;;;4965345;28;20451;-79
2022/04/10 04:45:27;;;;;;;11.47;10.67;;;2.20;99.90;;;;;;4980697;28;20450;-79
2022/04/10 04:48:21;;;;;;;11.47;10.63;;;2.20;99.90;;;;;;4969734;28;20462;-79
2022/04/10 04:50:49;;;;;;;12.00;11.10;;;2.20;99.90;;;;;;4977725;28;20476;-79
2022/04/10 04:53:21;;;;;;;11.43;10.50;;;2.20;99.90;;;;;;4980354;28;20453;-79
2022/04/10 04:55:48;;;;;;;12.77;11.67;;;2.20;99.90;;;;;;4980892;28;20500;-79
2022/04/10 04:58:16;;;;;;;12.50;11.30;;;2.20;99.90;;;;;;4981057;28;20464;-79
2022/04/10 05:00:44;;;;;;;11.43;10.63;;;2.20;99.90;;;;;;4992025;28;20473;-79
2022/04/10 05:03:11;;;;;;;11.90;10.90;;;2.20;99.90;;;;;;4980078;28;20524;-79
2022/04/10 05:05:40;;;;;;;12.27;11.30;;;2.30;99.90;;;;;;4982740;28;20458;-79
2022/04/10 05:08:19;;;;;;;11.73;10.87;;;2.30;99.90;;;;;;4985655;28;20446;-78
2022/04/10 05:10:47;;;;;;;11.70;10.80;;;2.40;99.90;;;;;;4991812;28;20534;-78
2022/04/10 05:13:15;;;;;;;12.07;11.20;;;2.40;99.90;;;;;;4981069;28;20462;-78
2022/04/10 05:15:42;;;;;;;13.53;12.33;;;2.50;99.90;;;;;;4985912;28;20479;-79
2022/04/10 05:18:09;;;;;;;12.00;11.00;;;2.60;99.90;;;;;;4981951;28;20457;-78
2022/04/10 05:20:41;;;;;;;11.87;11.00;;;2.70;99.90;;;;;;4979129;28;20981;-79
2022/04/10 05:23:16;;;;;;;12.70;11.70;;;2.70;99.90;;;;;;4993323;28;20452;-78
2022/04/10 05:25:44;;;;;;;11.70;10.90;;;2.90;99.90;;;;;;4982273;28;20892;-79
2022/04/10 05:28:12;;;;;;;12.50;11.50;;;3.10;99.90;;;;;;4979275;28;20456;-80
2022/04/10 05:30:39;;;;;;;12.80;11.70;;;3.30;99.90;;;;;;4969445;28;20481;-79
2022/04/10 05:33:08;;;;;;;12.17;11.27;;;3.50;99.90;;;;;;4967009;28;20472;-78
2022/04/10 05:35:36;;;;;;;13.03;12.13;;;3.70;99.90;;;;;;4972652;28;20509;-78
2022/04/10 05:38:05;;;;;;;11.40;10.50;;;3.90;99.90;;;;;;4980605;28;20512;-78
2022/04/10 05:40:33;;;;;;;11.40;10.37;;;4.10;99.90;;;;;;4969841;28;20503;-77
2022/04/10 05:43:01;;;;;;;11.10;10.30;;;4.30;99.90;;;;;;4969002;28;20515;-80
2022/04/10 05:45:28;;;;;;;11.47;10.47;;;4.30;99.90;;;;;;4981975;28;20736;-78
2022/04/10 05:47:57;;;;;;;12.00;10.90;;;4.20;99.90;;;;;;4981462;28;20452;-79
2022/04/10 05:50:28;;;;;;;10.87;10.07;;;4.20;99.90;;;;;;4976792;28;20987;-80
2022/04/10 05:52:56;;;;;;;11.63;10.50;;;4.20;99.90;;;;;;4981836;28;20201;-80
2022/04/10 05:55:28;;;;;;;11.57;10.77;;;4.20;99.90;;;;;;4983920;28;20914;-79
2022/04/10 05:57:58;;;;;;;11.13;10.40;;;4.20;99.90;;;;;;4970302;28;20228;-79
2022/04/10 06:00:26;;;;;;;11.13;10.23;;;4.20;99.90;;;;;;4971602;28;20225;-81
2022/04/10 06:03:05;;;;;;;10.93;10.13;;;4.20;99.90;;;;;;4974015;28;20197;-80
2022/04/10 06:05:35;;;;;;;11.70;10.90;;;4.20;99.90;;;;;;4973862;28;20334;-81
2022/04/10 06:08:24;;;;;;;5.97;4.80;;;4.30;99.90;;;;;;4974355;28;20524;-79
2022/04/10 06:10:53;;;;;;;5.83;5.17;;;4.40;99.90;;;;;;4978497;28;20221;-79
2022/04/10 06:13:21;;;;;;;5.43;4.57;;;4.40;99.90;;;;;;4978648;28;20260;-79
2022/04/10 06:16:01;;;;;;;10.20;9.20;;;4.50;99.90;;;;;;4986229;28;20213;-79
2022/04/10 06:18:28;;;;;;;10.97;10.17;;;4.60;99.90;;;;;;4970287;28;20289;-79
2022/04/10 06:20:57;;;;;;;10.63;9.73;;;4.70;99.90;;;;;;4970239;28;20205;-79
2022/04/10 06:23:25;;;;;;;11.07;10.17;;;4.80;99.90;;;;;;4980571;28;20197;-79
2022/04/10 06:26:01;;;;;;;10.37;9.57;;;5.00;99.90;;;;;;4981177;28;20193;-81
2022/04/10 06:28:30;;;;;;;10.17;9.37;;;5.10;99.90;;;;;;4986668;28;20615;-80
2022/04/10 06:30:58;;;;;;;10.47;9.67;;;5.20;99.90;;;;;;4979785;28;20256;-78
2022/04/10 06:33:29;;;;;;;8.67;7.97;;;5.30;99.90;;;;;;4980561;28;20276;-78
2022/04/10 06:35:58;;;;;;;6.47;4.90;;;5.40;99.90;;;;;;4982147;28;20623;-79
2022/04/10 06:38:26;;;;;;;5.17;4.77;;;5.60;99.90;;;;;;4976721;28;20198;-78
2022/04/10 06:41:03;;;;;;;10.27;9.47;;;5.80;99.90;;;;;;4979830;28;20208;-78
2022/04/10 06:43:31;;;;;;;10.43;9.63;;;6.00;99.90;;;;;;4987573;28;20293;-79
2022/04/10 06:46:18;;;;;;;10.57;9.77;;;6.10;99.90;;;;;;4978396;28;20277;-79
2022/04/10 06:48:58;;;;;;;12.10;11.10;;;6.30;99.90;;;;;;4978320;28;20218;-81
2022/04/10 06:51:26;;;;;;;11.30;10.50;;;6.50;99.90;;;;;;4982041;28;20202;-79
2022/04/10 06:53:53;;;;;;;10.67;9.87;;;6.70;99.90;;;;;;4983214;28;20260;-79
2022/04/10 06:56:24;;;;;;;10.93;10.13;;;6.90;99.90;;;;;;4980831;28;20296;-79
2022/04/10 06:58:51;;;;;;;5.63;5.13;;;7.20;99.90;;;;;;4993089;28;20276;-80
2022/04/10 07:01:19;;;;;;;7.90;7.30;;;7.70;99.90;;;;;;4980095;28;20208;-79
2022/04/10 07:03:46;;;;;;;7.37;6.43;;;8.10;99.90;;;;;;4977289;28;20641;-80
2022/04/10 07:06:16;;;;;;;6.60;4.77;;;8.40;99.90;;;;;;4978752;28;20310;-80
2022/04/10 07:08:45;;;;;;;7.53;6.83;;;8.80;99.90;;;;;;4976864;28;20292;-81
2022/04/10 07:11:12;;;;;;;7.63;6.83;;;9.10;99.90;;;;;;4972401;28;20670;-81
2022/04/10 07:13:41;;;;;;;7.67;6.53;;;9.00;99.90;;;;;;4969453;28;20244;-82
2022/04/10 07:16:09;;;;;;;5.40;3.97;;;9.20;99.90;;;;;;4966270;28;20583;-79
2022/04/10 07:18:36;;;;;;;7.33;4.60;;;9.20;99.90;;;;;;4965606;28;20747;-78
2022/04/10 07:21:09;;;;;;;7.97;6.03;;;9.50;99.90;;;;;;4965803;28;20638;-78
2022/04/10 07:23:43;;;;;;;6.77;6.17;;;9.50;99.90;;;;;;4971410;28;20285;-79
2022/04/10 07:26:17;;;;;;;6.40;5.80;;;9.90;99.90;;;;;;4967231;28;20490;-79
2022/04/10 07:28:49;;;;;;;6.30;5.70;;;10.10;99.90;;;;;;4970867;28;20289;-78
2022/04/10 07:31:17;;;;;;;6.07;5.07;;;10.30;99.90;;;;;;4987379;28;20559;-80
2022/04/10 07:33:44;;;;;;;5.37;4.87;;;10.30;99.90;;;;;;4981921;28;20557;-79
2022/04/10 07:36:32;;;;;;;8.10;6.20;;;10.20;99.90;;;;;;4987802;28;20238;-81
2022/04/10 07:39:00;;;;;;;6.30;5.70;;;10.30;99.90;;;;;;4977416;28;20449;-80
2022/04/10 07:41:33;;;;;;;6.40;5.63;;;10.50;99.90;;;;;;4976649;28;20207;-79
2022/04/10 07:44:04;;;;;;;5.43;4.90;;;10.30;99.90;;;;;;4977606;28;20244;-80
2022/04/10 07:49:16;;;;;;;6.90;6.23;;;10.70;99.90;;;;;;4969893;28;20583;-81
2022/04/10 07:51:53;;;;;;;5.50;4.30;;;10.90;99.90;;;;;;4972987;28;20203;-80
2022/04/10 07:54:26;;;;;;;7.03;5.10;;;11.10;99.90;;;;;;4982446;28;20284;-80
2022/04/10 07:56:56;;;;;;;5.80;5.30;;;11.10;99.90;;;;;;4974568;28;20319;-81
2022/04/10 07:59:29;;;;;;;6.67;5.57;;;11.30;99.90;;;;;;4979110;28;20318;-82
2022/04/10 08:01:57;;;;;;;6.70;5.80;;;11.40;99.90;;;;;;4976715;28;20743;-82
2022/04/10 08:04:28;;;;;;;7.43;6.20;;;11.40;99.90;;;;;;4971581;28;20209;-83
2022/04/10 08:07:16;;;;;;;6.10;5.50;;;11.40;99.90;;;;;;4973653;28;20205;-82
2022/04/10 08:09:44;;;;;;;6.20;5.60;;;11.50;99.90;;;;;;4986518;28;20270;-82
2022/04/10 08:12:12;;;;;;;5.60;5.20;;;11.70;99.90;;;;;;4981691;28;20260;-84
2022/04/10 08:14:40;;;;;;;6.03;5.33;;;12.00;99.90;;;;;;4969072;28;20198;-81
2022/04/10 08:17:09;;;;;;;5.60;4.80;;;12.20;99.90;;;;;;4982698;28;20303;-81
2022/04/10 08:19:36;;;;;;;5.70;5.10;;;12.50;99.90;;;;;;4968232;28;20229;-80
2022/04/10 08:22:03;;;;;;;5.93;5.43;;;12.70;99.90;;;;;;4969343;28;20203;-81
2022/04/10 08:24:30;;;;;;;7.40;6.80;;;12.80;99.90;;;;;;4976069;28;20202;-81
2022/04/10 08:26:59;;;;;;;8.33;7.60;;;13.20;99.90;;;;;;4972261;28;20229;-81
2022/04/10 08:29:26;;;;;;;9.80;9.00;;;13.50;99.90;;;;;;4974499;28;20225;-81
2022/04/10 08:31:54;;;;;;;9.77;8.90;;;13.30;99.90;;;;;;4989773;28;20201;-80
2022/04/10 08:34:21;;;;;;;10.30;9.60;;;13.20;99.90;;;;;;4976229;28;20212;-81
2022/04/10 08:36:48;;;;;;;12.07;11.07;;;12.90;99.90;;;;;;4980537;28;20217;-81
2022/04/10 08:39:15;;;;;;;9.83;9.13;;;12.80;99.90;;;;;;4977865;28;20228;-80
2022/04/10 08:41:43;;;;;;;9.43;8.73;;;12.90;99.90;;;;;;4982122;28;20750;-80
2022/04/10 08:44:11;;;;;;;9.93;9.03;;;13.20;99.90;;;;;;4983349;28;20300;-80
2022/04/10 08:46:38;;;;;;;9.93;9.27;;;13.40;99.90;;;;;;4982363;28;20209;-80
2022/04/10 08:49:08;;;;;;;9.77;8.97;;;13.60;99.90;;;;;;4989027;28;20250;-80
2022/04/10 08:51:35;;;;;;;10.23;9.43;;;13.80;99.90;;;;;;4979222;28;20240;-81
2022/04/10 08:54:02;;;;;;;9.43;8.53;;;14.10;99.90;;;;;;4976951;28;20190;-80
2022/04/10 08:56:29;;;;;;;10.20;9.40;;;14.10;99.90;;;;;;4973711;28;20238;-79
2022/04/10 08:58:56;;;;;;;9.60;8.80;;;14.30;99.90;;;;;;4981550;28;20604;-80
2022/04/10 09:01:23;;;;;;;10.87;10.07;;;14.50;99.90;;;;;;4983131;28;20213;-78
2022/04/10 09:03:50;;;;;;;6.50;5.90;;;14.50;99.90;;;;;;4983647;28;20198;-81
2022/04/10 09:06:19;;;;;;;6.23;5.10;;;14.80;99.90;;;;;;4988734;28;20249;-80
2022/04/10 09:08:46;;;;;;;5.97;5.47;;;14.90;99.90;;;;;;4980127;28;20194;-81
2022/04/10 09:11:13;;;;;;;10.43;9.00;;;15.10;99.90;;;;;;4979458;28;20206;-80
2022/04/10 09:13:46;;;;;;;8.57;7.87;;;15.50;99.90;;;;;;4970974;28;20212;-78
2022/04/10 09:16:15;;;;;;;9.33;8.50;;;15.90;99.90;;;;;;4968018;28;20221;-80
2022/04/10 09:18:55;;;;;;;8.82;8.13;;;15.80;99.90;;;;;;4972456;28;20445;-80
2022/04/10 09:21:28;;;;;;;8.23;7.43;;;15.40;99.90;;;;;;4993383;28;20579;-80
2022/04/10 09:24:06;;;;;;;8.33;7.73;;;15.00;99.90;;;;;;4997382;28;20240;-80
2022/04/10 09:26:44;;;;;;;9.83;8.97;;;14.00;99.90;;;;;;4981366;28;20289;-79
2022/04/10 09:29:12;;;;;;;9.47;8.67;;;13.70;99.90;;;;;;4969438;28;20237;-80
2022/04/10 09:31:39;;;;;;;9.33;8.53;;;13.50;99.90;;;;;;4981495;28;20225;-80
2022/04/10 09:34:08;;;;;;;8.97;8.17;;;13.10;99.90;;;;;;4978627;28;20668;-79
2022/04/10 09:36:39;;;;;;;8.33;7.73;;;12.60;99.90;;;;;;4978702;28;20224;-79
2022/04/10 09:39:12;;;;;;;8.63;8.03;;;12.40;99.90;;;;;;4975415;28;20214;-79
2022/04/10 09:41:40;;;;;;;8.47;7.63;;;12.20;99.90;;;;;;4975965;28;20229;-79
2022/04/10 09:44:17;;;;;;;8.20;7.60;;;12.10;99.90;;;;;;4992539;28;20194;-79
2022/04/10 09:46:44;;;;;;;7.07;6.47;;;11.90;99.90;;;;;;4985746;28;20204;-79
2022/04/10 09:49:19;;;;;;;6.13;5.63;;;11.80;99.90;;;;;;4974958;28;20717;-79
2022/04/10 09:52:01;;;;;;;7.73;6.10;;;11.60;99.90;;;;;;4970709;28;20460;-79
2022/04/10 09:54:37;;;;;;;7.40;6.90;;;11.40;99.90;;;;;;4969532;28;20208;-79
2022/04/10 09:57:06;;;;;;;8.03;7.43;;;10.90;99.90;;;;;;4985526;28;20763;-79
2022/04/10 09:59:39;;;;;;;8.30;7.50;;;10.50;99.90;;;;;;4986130;28;20712;-79
2022/04/10 10:02:07;;;;;;;7.13;6.53;;;10.20;99.90;;;;;;4973897;28;20232;-79
2022/04/10 10:04:37;;;;;;;7.47;6.80;;;10.10;99.90;;;;;;4985527;28;20205;-78
2022/04/10 10:07:09;;;;;;;7.90;7.20;;;10.00;99.90;;;;;;4986800;28;20283;-80
2022/04/10 10:09:36;;;;;;;8.07;7.47;;;10.20;99.90;;;;;;4973969;28;20226;-80
2022/04/10 10:12:04;;;;;;;8.13;7.53;;;10.40;99.90;;;;;;4972657;28;20199;-79
2022/04/10 10:14:33;;;;;;;7.60;7.00;;;10.70;99.90;;;;;;4979808;28;20226;-79
2022/04/10 10:17:02;;;;;;;8.10;7.50;;;10.70;99.90;;;;;;4980900;28;20218;-79
2022/04/10 10:19:34;;;;;;;7.77;7.27;;;11.00;99.90;;;;;;4977488;28;20231;-80
2022/04/10 10:22:01;;;;;;;8.07;7.47;;;11.00;99.90;;;;;;4985944;28;20581;-79
2022/04/10 10:24:35;;;;;;;9.60;8.90;;;11.10;99.90;;;;;;4999572;28;20211;-79
2022/04/10 10:27:26;;;;;;;9.03;8.23;;;11.60;99.90;;;;;;4977429;28;20199;-80
2022/04/10 10:30:06;;;;;;;6.10;5.63;;;11.90;99.90;;;;;;4968964;28;20275;-80
2022/04/10 10:32:41;;;;;;;5.90;5.30;;;12.10;99.90;;;;;;4970967;28;20207;-79
2022/04/10 10:35:11;;;;;;;6.43;6.03;;;12.00;99.90;;;;;;4994126;28;20211;-80
2022/04/10 10:37:50;;;;;;;6.80;6.30;;;11.90;99.90;;;;;;4973071;28;20305;-80
2022/04/10 10:40:19;;;;;;;6.60;6.10;;;11.80;99.90;;;;;;4982723;28;20249;-78
2022/04/10 10:42:47;;;;;;;6.67;6.20;;;12.20;99.90;;;;;;4983478;28;20207;-79
2022/04/10 10:45:33;;;;;;;5.43;5.03;;;12.30;99.90;;;;;;4958446;28;20205;-78
2022/04/10 10:48:23;;;;;;;7.20;6.50;;;12.40;99.90;;;;;;4968373;28;20242;-77
2022/04/10 10:50:51;;;;;;;5.40;4.53;;;12.40;99.90;;;;;;4991041;28;20212;-78
2022/04/10 10:53:23;;;;;;;8.40;7.80;;;12.10;99.90;;;;;;4986409;28;20289;-79
2022/04/10 10:55:52;;;;;;;7.70;7.10;;;11.50;99.90;;;;;;4983214;28;20271;-81
2022/04/10 10:58:31;;;;;;;8.13;7.50;;;10.60;99.90;;;;;;4982917;28;20573;-79
2022/04/10 11:01:04;;;;;;;8.60;7.90;;;9.90;99.90;;;;;;4980742;28;20201;-81
2022/04/10 11:03:31;;;;;;;9.10;8.30;;;9.40;99.90;;;;;;4984773;28;20212;-82
2022/04/10 11:12:37;;;;;;;9.20;8.30;;;8.80;99.90;;;;;;4952167;28;20682;-80
2022/04/10 11:18:51;;;;;;;9.27;8.57;;;8.70;99.90;;;;;;4964178;28;20201;-78
2022/04/10 11:21:20;;;;;;;9.27;8.47;;;8.80;99.90;;;;;;4988954;28;20251;-80
2022/04/10 11:23:48;;;;;;;10.33;9.50;;;8.80;99.90;;;;;;4989485;28;20284;-80
2022/04/10 11:26:19;;;;;;;8.70;8.00;;;8.90;99.90;;;;;;4987364;28;20288;-81
2022/04/10 11:28:56;;;;;;;9.20;8.33;;;9.00;99.90;;;;;;4965774;28;20208;-78
2022/04/10 11:31:38;;;;;;;8.60;7.93;;;9.10;99.90;;;;;;4977411;28;20203;-79
2022/04/10 11:34:10;;;;;;;9.03;8.27;;;9.50;99.90;;;;;;4978750;28;20199;-78
2022/04/10 11:36:55;;;;;;;8.60;7.90;;;9.80;99.90;;;;;;4983517;28;20228;-79
2022/04/10 11:39:28;;;;;;;9.00;8.20;;;10.00;99.90;;;;;;4983244;28;20248;-79
2022/04/10 11:41:58;;;;;;;9.40;8.37;;;9.90;99.90;;;;;;4990032;28;20205;-80
2022/04/10 11:44:27;;;;;;;9.53;8.63;;;9.90;99.90;;;;;;4984617;28;20301;-79
2022/04/10 11:46:54;;;;;;;9.03;8.23;;;9.70;99.90;;;;;;4966644;28;20595;-79
2022/04/10 11:49:21;;;;;;;9.87;9.17;;;9.40;99.90;;;;;;4982715;28;20250;-77
2022/04/10 11:51:56;;;;;;;8.57;7.87;;;9.40;99.90;;;;;;4995875;28;20292;-78
2022/04/10 11:54:33;;;;;;;8.37;7.60;;;9.30;99.90;;;;;;4999824;28;20205;-79
2022/04/10 11:57:02;;;;;;;8.07;7.47;;;9.60;99.90;;;;;;4976109;28;20217;-79
2022/04/10 11:59:35;;;;;;;8.43;7.70;;;9.80;99.90;;;;;;4977256;28;20710;-79
2022/04/10 12:02:03;;;;;;;8.60;7.90;;;10.10;99.90;;;;;;4981256;28;20202;-79
2022/04/10 12:04:31;;;;;;;8.07;7.27;;;10.10;99.90;;;;;;4990671;28;20714;-80
2022/04/10 12:07:12;;;;;;;8.10;7.50;;;10.60;99.90;;;;;;4983510;28;20197;-78
2022/04/10 12:09:39;;;;;;;7.50;7.00;;;10.50;99.90;;;;;;4984144;28;20575;-82
2022/04/10 12:12:07;;;;;;;8.03;7.43;;;10.60;99.90;;;;;;4985185;28;20206;-79
2022/04/10 12:14:35;;;;;;;7.87;7.27;;;10.70;99.90;;;;;;4981361;28;20209;-80
2022/04/10 12:17:03;;;;;;;8.63;7.90;;;10.80;99.90;;;;;;4981798;28;20665;-78
2022/04/10 12:19:31;;;;;;;5.27;4.77;;;10.90;99.90;;;;;;4970491;28;20240;-79
2022/04/10 12:21:59;;;;;;;4.97;4.57;;;11.00;99.90;;;;;;4978825;28;20441;-78
2022/04/10 12:24:28;;;;;;;7.37;6.70;;;11.10;99.90;;;;;;4978390;28;20199;-79
2022/04/10 12:26:57;;;;;;;5.13;4.73;;;11.10;99.90;;;;;;4978276;28;20257;-79
2022/04/10 12:29:30;;;;;;;5.37;4.80;;;11.20;99.90;;;;;;4984011;28;20233;-79
2022/04/10 12:32:10;;;;;;;6.20;5.60;;;11.50;99.90;;;;;;4959349;28;20213;-79
2022/04/10 12:34:42;;;;;;;7.10;6.40;;;11.40;99.90;;;;;;4985764;28;20290;-80
2022/04/10 12:37:21;;;;;;;6.63;4.90;;;11.70;99.90;;;;;;4978556;28;20600;-78
2022/04/10 12:39:50;;;;;;;5.40;4.37;;;11.90;99.90;;;;;;4970412;28;20718;-79
2022/04/10 12:42:20;;;;;;;3.90;3.50;;;11.90;99.90;;;;;;4972171;28;20197;-78
2022/04/10 12:44:56;;;;;;;4.17;3.73;;;12.00;99.90;;;;;;4973348;28;20205;-80
2022/04/10 12:47:40;;;;;;;7.70;3.53;;;11.90;99.90;;;;;;4998339;28;20207;-81
2022/04/10 12:50:09;;;;;;;4.20;3.50;;;11.50;99.90;;;;;;4977669;28;20320;-81
2022/04/10 12:52:40;;;;;;;4.77;4.37;;;11.50;99.90;;;;;;4996196;28;20204;-80
2022/04/10 12:55:19;;;;;;;4.17;3.77;;;11.30;99.90;;;;;;4973247;28;20204;-80
2022/04/10 12:57:54;;;;;;;4.13;3.27;;;11.20;99.90;;;;;;4982627;28;20216;-81
2022/04/10 13:00:26;;;;;;;7.90;7.27;;;10.90;99.90;;;;;;4984244;28;20310;-80
2022/04/10 13:02:55;;;;;;;8.87;8.13;;;10.40;99.90;;;;;;4978761;28;20200;-81
2022/04/10 13:05:22;;;;;;;8.67;7.97;;;10.20;99.90;;;;;;4980980;28;20638;-79
2022/04/10 13:08:00;;;;;;;8.60;8.00;;;9.90;99.90;;;;;;4996850;28;20240;-80
2022/04/10 13:10:28;;;;;;;8.30;7.60;;;9.80;99.90;;;;;;4971239;28;20304;-81
2022/04/10 13:13:07;;;;;;;8.37;7.57;;;9.60;99.90;;;;;;4968636;28;20245;-80
2022/04/10 13:15:36;;;;;;;8.27;7.67;;;9.60;99.90;;;;;;4980007;28;20236;-80
2022/04/10 13:18:06;;;;;;;9.00;8.20;;;9.50;99.90;;;;;;5027386;23;20257;-76